Time;durP1;ratioP1;P1;durP2;ratioP2;P2;SDS_P1;SDS_P2;PMS_P1;PMS_P2;Temp;Humidity;BMP_temperature;BMP_pressure;BME280_temperature;BME280_humidity;BME280_pressure;Samples;Min_cycle;Max_cycle;Signal;HPM_P1;HPM_P2
2022/09/16 00:01:30;;;;;;;;;3.33;3.33;;;;;;;;5089246;27;45699;-77
2022/09/16 00:03:56;;;;;;;;;6.67;4.00;;;;;;;;5089799;27;45441;-77
2022/09/16 00:06:23;;;;;;;;;6.00;5.33;;;;;;;;5089173;27;45854;-77
2022/09/16 00:08:51;;;;;;;;;6.67;6.67;;;;;;;;5093170;27;45867;-77
2022/09/16 00:11:19;;;;;;;;;8.00;6.00;;;;;;;;5074843;27;45344;-76
2022/09/16 00:13:48;;;;;;;;;8.67;5.00;;;;;;;;5075193;27;45810;-76
2022/09/16 00:16:32;;;;;;;;;6.00;5.00;;;;;;;;5078410;27;45386;-77
2022/09/16 00:18:59;;;;;;;;;13.00;11.67;;;;;;;;5100446;27;46213;-76
2022/09/16 00:21:28;;;;;;;;;6.67;6.67;;;;;;;;5106456;27;45378;-77
2022/09/16 00:23:56;;;;;;;;;5.00;4.00;;;;;;;;5074836;27;45722;-76
2022/09/16 00:26:22;;;;;;;;;9.33;5.00;;;;;;;;5086703;27;45693;-76
2022/09/16 00:28:51;;;;;;;;;4.00;4.00;;;;;;;;5087128;27;46584;-76
2022/09/16 00:31:17;;;;;;;;;6.67;5.00;;;;;;;;5093744;27;45335;-76
2022/09/16 00:33:42;;;;;;;;;5.00;5.00;;;;;;;;5106955;27;45830;-77
2022/09/16 00:36:08;;;;;;;;;20.33;9.33;;;;;;;;5092721;27;45416;-78
2022/09/16 00:38:40;;;;;;;;;16.67;15.33;;;;;;;;5075062;27;48592;-78
2022/09/16 00:41:13;;;;;;;;;10.00;7.67;;;;;;;;5105055;27;45572;-77
2022/09/16 00:43:54;;;;;;;;;9.00;9.00;;;;;;;;5092585;27;45461;-77
2022/09/16 00:46:26;;;;;;;;;14.33;11.67;;;;;;;;5092768;27;45572;-77
2022/09/16 00:48:51;;;;;;;;;4.00;4.00;;;;;;;;5092449;27;45554;-77
2022/09/16 00:51:24;;;;;;;;;10.67;5.67;;;;;;;;5105335;27;45691;-77
2022/09/16 00:53:56;;;;;;;;;6.67;6.67;;;;;;;;5092341;27;45459;-78
2022/09/16 00:56:33;;;;;;;;;5.33;5.00;;;;;;;;5075046;27;45485;-78
2022/09/16 00:59:04;;;;;;;;;9.67;7.00;;;;;;;;5098159;27;46122;-76
2022/09/16 01:01:30;;;;;;;;;7.00;7.00;;;;;;;;5096418;27;45711;-77
2022/09/16 01:03:59;;;;;;;;;9.33;9.33;;;;;;;;5088560;27;45935;-76
2022/09/16 01:06:28;;;;;;;;;8.00;8.00;;;;;;;;5095295;27;45886;-75
2022/09/16 01:08:58;;;;;;;;;17.33;14.00;;;;;;;;5097170;27;45619;-77
2022/09/16 01:11:32;;;;;;;;;18.00;12.33;;;;;;;;5074014;27;45883;-76
2022/09/16 01:14:51;;;;;;;;;4.00;4.00;;;;;;;;5090200;27;45738;-76
2022/09/16 01:17:04;;;;;;;;;8.00;7.00;;;;;;;;5089516;27;45525;-77
2022/09/16 01:19:30;;;;;;;;;7.33;7.33;;;;;;;;5092458;27;45506;-76
2022/09/16 01:22:16;;;;;;;;;7.67;6.67;;;;;;;;5092943;27;45507;-76
2022/09/16 01:25:16;;;;;;;;;8.67;7.00;;;;;;;;5093165;27;45606;-75
2022/09/16 01:27:54;;;;;;;;;9.00;8.00;;;;;;;;5106410;27;45443;-75
2022/09/16 01:30:38;;;;;;;;;6.00;6.00;;;;;;;;5087119;27;45777;-76
2022/09/16 01:33:30;;;;;;;;;12.67;11.67;;;;;;;;5070743;27;45872;-76
2022/09/16 01:35:58;;;;;;;;;8.67;8.00;;;;;;;;5073980;27;45437;-75
2022/09/16 01:38:42;;;;;;;;;6.67;6.67;;;;;;;;5101311;27;45898;-76
2022/09/16 01:41:30;;;;;;;;;5.33;5.33;;;;;;;;5094907;27;45703;-75
2022/09/16 01:44:00;;;;;;;;;6.67;5.00;;;;;;;;5074115;27;45438;-75
2022/09/16 01:46:29;;;;;;;;;9.33;8.33;;;;;;;;5088152;27;45984;-78
2022/09/16 01:48:59;;;;;;;;;5.00;4.00;;;;;;;;5093870;27;46016;-76
2022/09/16 01:51:24;;;;;;;;;9.00;9.00;;;;;;;;5073449;27;47318;-75
2022/09/16 01:53:50;;;;;;;;;8.67;8.67;;;;;;;;5073870;27;45348;-75
2022/09/16 01:56:21;;;;;;;;;13.67;12.00;;;;;;;;5092379;27;45381;-75
2022/09/16 01:58:50;;;;;;;;;7.33;7.33;;;;;;;;5092177;27;45777;-76
2022/09/16 02:01:35;;;;;;;;;8.00;8.00;;;;;;;;5073421;27;45744;-77
2022/09/16 02:04:04;;;;;;;;;11.00;8.33;;;;;;;;5073697;27;45698;-75
2022/09/16 02:06:33;;;;;;;;;8.00;6.67;;;;;;;;5092708;27;45811;-76
2022/09/16 02:09:04;;;;;;;;;8.33;8.33;;;;;;;;5094163;27;45700;-76
2022/09/16 02:11:29;;;;;;;;;8.33;7.33;;;;;;;;5076037;27;46766;-76
2022/09/16 02:14:02;;;;;;;;;9.33;7.67;;;;;;;;5089240;27;45558;-77
2022/09/16 02:16:31;;;;;;;;;11.33;8.00;;;;;;;;5090229;27;45757;-75
2022/09/16 02:19:00;;;;;;;;;11.00;10.33;;;;;;;;5099057;27;46744;-76
2022/09/16 02:21:27;;;;;;;;;10.33;7.33;;;;;;;;5104481;27;45731;-76
2022/09/16 02:23:54;;;;;;;;;14.00;9.33;;;;;;;;5099396;27;46013;-77
2022/09/16 02:26:23;;;;;;;;;8.67;8.67;;;;;;;;5103931;27;45532;-76
2022/09/16 02:28:50;;;;;;;;;10.67;7.67;;;;;;;;5109138;27;45754;-77
2022/09/16 02:31:17;;;;;;;;;9.00;8.67;;;;;;;;5095310;27;46412;-77
2022/09/16 02:33:45;;;;;;;;;11.00;9.67;;;;;;;;5108585;27;45821;-75
2022/09/16 02:36:12;;;;;;;;;10.00;9.00;;;;;;;;5095634;27;45813;-75
2022/09/16 02:38:42;;;;;;;;;8.67;7.67;;;;;;;;5108222;27;45465;-77
2022/09/16 02:41:13;;;;;;;;;12.67;9.00;;;;;;;;5103786;27;46417;-76
2022/09/16 02:43:39;;;;;;;;;9.33;9.33;;;;;;;;5113970;27;45458;-76
2022/09/16 02:46:05;;;;;;;;;11.33;8.67;;;;;;;;5103977;27;45425;-76
2022/09/16 02:48:30;;;;;;;;;9.00;6.00;;;;;;;;5098835;27;45912;-76
2022/09/16 02:51:01;;;;;;;;;12.00;11.33;;;;;;;;5103910;27;45662;-78
2022/09/16 02:53:35;;;;;;;;;12.33;11.00;;;;;;;;5099166;27;45812;-76
2022/09/16 02:56:08;;;;;;;;;11.00;7.67;;;;;;;;5102394;27;45493;-78
2022/09/16 02:58:33;;;;;;;;;11.00;11.00;;;;;;;;5094586;27;45801;-77
2022/09/16 03:00:59;;;;;;;;;12.67;10.33;;;;;;;;5094298;27;45730;-76
2022/09/16 03:03:24;;;;;;;;;10.33;10.33;;;;;;;;5096010;27;45575;-77
2022/09/16 03:06:10;;;;;;;;;11.67;8.00;;;;;;;;5107469;27;45388;-75
2022/09/16 03:08:36;;;;;;;;;10.00;7.33;;;;;;;;5082586;27;45393;-76
2022/09/16 03:11:07;;;;;;;;;12.33;9.67;;;;;;;;5104742;27;46088;-76
2022/09/16 03:13:39;;;;;;;;;18.33;12.33;;;;;;;;5093823;27;45636;-75
2022/09/16 03:16:20;;;;;;;;;15.67;11.67;;;;;;;;5094164;27;45900;-77
2022/09/16 03:19:27;;;;;;;;;10.00;8.00;;;;;;;;5083608;27;45502;-78
2022/09/16 03:21:52;;;;;;;;;9.33;8.33;;;;;;;;4973011;28;48468;-76
2022/09/16 03:24:35;;;;;;;;;9.67;9.00;;;;;;;;4989279;28;45717;-75
2022/09/16 03:27:06;;;;;;;;;10.00;8.67;;;;;;;;5041325;27;45853;-76
2022/09/16 03:29:40;;;;;;;;;17.67;12.33;;;;;;;;5102036;27;45544;-77
2022/09/16 03:32:05;;;;;;;;;12.67;11.33;;;;;;;;5085000;27;45757;-75
2022/09/16 03:34:41;;;;;;;;;11.00;9.00;;;;;;;;5094246;27;45711;-76
2022/09/16 03:37:08;;;;;;;;;8.00;7.67;;;;;;;;5079306;27;45383;-76
2022/09/16 03:39:34;;;;;;;;;11.00;10.67;;;;;;;;5102982;27;45509;-76
2022/09/16 03:42:00;;;;;;;;;11.00;9.67;;;;;;;;5090325;27;45434;-75
2022/09/16 03:44:36;;;;;;;;;9.67;7.33;;;;;;;;5084776;27;45457;-76
2022/09/16 03:47:02;;;;;;;;;10.33;9.67;;;;;;;;5088353;27;45466;-77
2022/09/16 03:49:29;;;;;;;;;7.00;7.00;;;;;;;;5086515;27;45533;-81
2022/09/16 03:51:54;;;;;;;;;12.67;12.00;;;;;;;;5080961;27;47202;-80
2022/09/16 03:54:20;;;;;;;;;10.67;8.00;;;;;;;;5076489;27;46052;-81
2022/09/16 03:56:45;;;;;;;;;15.00;11.00;;;;;;;;5072586;28;45359;-80
2022/09/16 03:59:11;;;;;;;;;10.67;10.00;;;;;;;;5086246;27;45526;-81
2022/09/16 04:01:36;;;;;;;;;10.67;9.00;;;;;;;;5092977;27;45628;-82
2022/09/16 04:04:05;;;;;;;;;8.67;7.67;;;;;;;;5071808;27;45814;-82
2022/09/16 04:06:31;;;;;;;;;10.00;7.67;;;;;;;;5093024;27;45370;-80
2022/09/16 04:09:00;;;;;;;;;11.00;8.00;;;;;;;;5081564;27;45510;-85
2022/09/16 04:11:31;;;;;;;;;10.00;8.33;;;;;;;;5102977;27;45950;-86
2022/09/16 04:13:56;;;;;;;;;7.67;5.67;;;;;;;;5088710;27;45461;-86
2022/09/16 04:16:21;;;;;;;;;12.00;10.00;;;;;;;;5080185;27;45410;-87
2022/09/16 04:18:47;;;;;;;;;10.33;8.00;;;;;;;;5087272;27;45487;-86
2022/09/16 04:21:16;;;;;;;;;9.00;7.67;;;;;;;;5071306;27;47283;-84
2022/09/16 04:23:42;;;;;;;;;8.00;8.00;;;;;;;;5116586;27;45439;-86
2022/09/16 04:26:08;;;;;;;;;8.00;8.00;;;;;;;;5107414;27;45378;-85
2022/09/16 04:28:37;;;;;;;;;12.67;9.33;;;;;;;;5121046;27;45782;-88
2022/09/16 04:31:06;;;;;;;;;11.33;7.67;;;;;;;;5103263;27;45475;-88
2022/09/16 04:33:36;;;;;;;;;10.00;9.00;;;;;;;;5116030;27;45441;-87
2022/09/16 04:36:02;;;;;;;;;15.33;12.33;;;;;;;;5101995;27;45405;-90
2022/09/16 04:38:35;;;;;;;;;15.00;13.67;;;;;;;;5120096;27;45004;-91
2022/09/16 04:41:13;;;;;;;;;7.00;7.00;;;;;;;;5097327;27;46783;-89
2022/09/16 04:43:41;;;;;;;;;17.33;15.00;;;;;;;;5095314;27;45711;-89
2022/09/16 04:46:19;;;;;;;;;8.33;8.33;;;;;;;;5117722;27;45171;-86
2022/09/16 04:48:51;;;;;;;;;9.00;8.33;;;;;;;;5112677;27;45773;-87
2022/09/16 04:51:31;;;;;;;;;15.00;11.33;;;;;;;;5090733;27;45977;-85
2022/09/16 04:54:29;;;;;;;;;14.00;11.33;;;;;;;;5087516;27;45835;-86
2022/09/16 04:56:56;;;;;;;;;11.67;8.67;;;;;;;;5066780;27;45413;-87
2022/09/16 04:59:46;;;;;;;;;7.33;6.00;;;;;;;;5094078;27;45300;-87
2022/09/16 05:02:33;;;;;;;;;7.00;7.00;;;;;;;;5113328;27;45355;-90
2022/09/16 05:04:59;;;;;;;;;11.00;11.00;;;;;;;;5090114;27;45348;-87
2022/09/16 05:07:57;;;;;;;;;9.33;8.33;;;;;;;;5116545;27;45173;-90
2022/09/16 05:10:51;;;;;;;;;8.67;8.33;;;;;;;;5088400;27;45462;-86
2022/09/16 05:13:24;;;;;;;;;10.33;7.33;;;;;;;;5090750;27;45541;-88
2022/09/16 05:15:50;;;;;;;;;8.00;8.00;;;;;;;;5086095;27;45709;-84
2022/09/16 05:18:46;;;;;;;;;;;;;;;;;;;;;
2022/09/16 05:21:20;;;;;;;;;9.67;8.33;;;;;;;;5091833;27;74018;-79
2022/09/16 05:23:51;;;;;;;;;10.00;7.00;;;;;;;;5101280;27;46287;-86
2022/09/16 05:26:40;;;;;;;;;15.00;8.67;;;;;;;;5102513;27;45603;-87
2022/09/16 05:29:07;;;;;;;;;14.00;10.67;;;;;;;;5080125;27;45790;-82
2022/09/16 05:31:34;;;;;;;;;11.00;9.67;;;;;;;;5099984;27;45828;-79
2022/09/16 05:34:03;;;;;;;;;10.33;9.00;;;;;;;;5096233;27;46433;-80
2022/09/16 05:36:30;;;;;;;;;12.67;12.67;;;;;;;;5098446;27;45421;-79
2022/09/16 05:38:56;;;;;;;;;8.67;7.33;;;;;;;;5093577;27;45770;-78
2022/09/16 05:41:22;;;;;;;;;13.33;9.67;;;;;;;;5091652;27;45843;-79
2022/09/16 05:43:47;;;;;;;;;10.33;8.33;;;;;;;;5093460;27;45426;-81
2022/09/16 05:46:20;;;;;;;;;11.33;8.67;;;;;;;;5065026;28;45599;-80
2022/09/16 05:48:46;;;;;;;;;11.33;11.00;;;;;;;;5081200;27;46002;-82
2022/09/16 05:51:13;;;;;;;;;9.67;9.33;;;;;;;;5071138;28;45816;-77
2022/09/16 05:53:39;;;;;;;;;10.00;9.67;;;;;;;;5048908;28;45871;-81
2022/09/16 05:56:06;;;;;;;;;12.67;10.33;;;;;;;;5049689;28;45525;-79
2022/09/16 05:58:32;;;;;;;;;7.67;7.67;;;;;;;;5059054;28;45764;-79
2022/09/16 06:00:58;;;;;;;;;14.00;10.67;;;;;;;;5069510;28;45553;-80
2022/09/16 06:03:23;;;;;;;;;9.00;8.00;;;;;;;;5063497;28;45654;-79
2022/09/16 06:05:48;;;;;;;;;13.33;11.33;;;;;;;;5070021;28;45371;-80
2022/09/16 06:08:14;;;;;;;;;6.67;4.33;;;;;;;;5060257;27;45626;-81
2022/09/16 06:10:40;;;;;;;;;13.00;9.33;;;;;;;;5053596;28;45534;-79
2022/09/16 06:13:06;;;;;;;;;13.33;10.33;;;;;;;;5068291;27;46188;-78
2022/09/16 06:15:32;;;;;;;;;9.33;8.33;;;;;;;;5072177;27;45501;-79
2022/09/16 06:17:57;;;;;;;;;9.33;8.33;;;;;;;;5069930;27;45543;-78
2022/09/16 06:20:23;;;;;;;;;11.00;10.67;;;;;;;;5079061;27;46717;-78
2022/09/16 06:22:48;;;;;;;;;9.00;8.33;;;;;;;;5071769;27;46474;-79
2022/09/16 06:25:13;;;;;;;;;9.67;8.33;;;;;;;;5058116;27;45755;-78
2022/09/16 06:27:38;;;;;;;;;14.33;11.00;;;;;;;;5071457;27;45521;-78
2022/09/16 06:30:04;;;;;;;;;9.67;9.67;;;;;;;;5048868;28;45717;-78
2022/09/16 06:32:30;;;;;;;;;12.67;11.33;;;;;;;;5048668;27;47561;-78
2022/09/16 06:34:55;;;;;;;;;12.00;9.33;;;;;;;;5078515;27;45986;-79
2022/09/16 06:37:21;;;;;;;;;7.33;7.33;;;;;;;;5064739;27;45706;-86
2022/09/16 06:39:47;;;;;;;;;11.33;9.67;;;;;;;;5066353;28;46200;-88
2022/09/16 06:42:12;;;;;;;;;10.33;9.33;;;;;;;;5062738;27;47590;-79
2022/09/16 06:44:37;;;;;;;;;13.67;10.33;;;;;;;;5066755;28;46003;-84
2022/09/16 06:47:10;;;;;;;;;12.00;10.33;;;;;;;;5062657;27;45511;-84
2022/09/16 06:49:36;;;;;;;;;10.67;9.33;;;;;;;;5075883;28;45545;-84
2022/09/16 06:52:02;;;;;;;;;13.33;13.33;;;;;;;;5069555;28;45604;-86
2022/09/16 06:54:28;;;;;;;;;20.33;17.00;;;;;;;;5074751;27;45253;-85
2022/09/16 06:56:53;;;;;;;;;18.00;12.00;;;;;;;;5070132;28;45466;-86
2022/09/16 06:59:19;;;;;;;;;10.00;9.33;;;;;;;;5087593;27;45563;-86
2022/09/16 07:01:55;;;;;;;;;16.67;12.33;;;;;;;;5078126;28;45438;-86
2022/09/16 07:04:20;;;;;;;;;13.00;10.33;;;;;;;;5083235;27;44830;-86
2022/09/16 07:06:49;;;;;;;;;13.67;10.33;;;;;;;;5085929;27;45686;-85
2022/09/16 07:09:17;;;;;;;;;9.00;9.00;;;;;;;;5090306;27;46761;-86
2022/09/16 07:11:43;;;;;;;;;10.00;8.33;;;;;;;;5080396;27;45521;-85
2022/09/16 07:14:09;;;;;;;;;10.67;10.33;;;;;;;;5085649;27;45920;-85
2022/09/16 07:16:35;;;;;;;;;9.33;6.67;;;;;;;;5088569;27;45433;-86
2022/09/16 07:19:00;;;;;;;;;13.33;11.33;;;;;;;;5080924;28;45929;-86
2022/09/16 07:21:35;;;;;;;;;12.67;10.67;;;;;;;;5089796;27;46969;-87
2022/09/16 07:24:06;;;;;;;;;11.33;9.00;;;;;;;;5083888;27;45385;-86
2022/09/16 07:26:38;;;;;;;;;8.33;8.33;;;;;;;;5081557;27;45168;-86
2022/09/16 07:29:16;;;;;;;;;14.33;11.33;;;;;;;;5082915;28;45899;-85
2022/09/16 07:32:03;;;;;;;;;10.67;7.33;;;;;;;;5089892;27;46419;-87
2022/09/16 07:34:33;;;;;;;;;8.67;8.67;;;;;;;;5087356;28;45347;-87
2022/09/16 07:36:59;;;;;;;;;11.00;9.67;;;;;;;;5086751;28;45516;-88
2022/09/16 07:39:28;;;;;;;;;9.00;7.67;;;;;;;;5095632;27;45766;-86
2022/09/16 07:41:53;;;;;;;;;9.33;9.00;;;;;;;;5078835;28;45645;-88
2022/09/16 07:44:23;;;;;;;;;9.33;7.33;;;;;;;;5080579;28;45413;-86
2022/09/16 07:46:50;;;;;;;;;10.67;9.00;;;;;;;;5064117;27;45398;-88
2022/09/16 07:49:19;;;;;;;;;9.67;7.67;;;;;;;;5077430;27;45387;-84
2022/09/16 07:51:49;;;;;;;;;7.33;6.33;;;;;;;;5085926;28;45967;-86
2022/09/16 07:54:20;;;;;;;;;12.33;9.67;;;;;;;;5083571;28;45539;-87
2022/09/16 07:56:48;;;;;;;;;11.00;8.67;;;;;;;;5086084;27;46216;-86
2022/09/16 07:59:16;;;;;;;;;8.00;8.00;;;;;;;;5082837;27;45747;-81
2022/09/16 08:01:42;;;;;;;;;11.00;9.00;;;;;;;;5069872;27;45949;-80
2022/09/16 08:04:11;;;;;;;;;8.67;7.00;;;;;;;;5069374;28;45724;-83
2022/09/16 08:06:37;;;;;;;;;10.33;6.67;;;;;;;;5076426;27;45877;-81
2022/09/16 08:09:03;;;;;;;;;6.33;6.33;;;;;;;;5084280;27;45633;-80
2022/09/16 08:11:29;;;;;;;;;8.67;8.67;;;;;;;;5066618;27;45715;-80
2022/09/16 08:13:54;;;;;;;;;5.67;4.33;;;;;;;;5053149;28;45571;-78
2022/09/16 08:16:20;;;;;;;;;7.33;6.00;;;;;;;;5069788;28;45541;-82
2022/09/16 08:18:50;;;;;;;;;9.33;6.00;;;;;;;;5067064;28;45499;-80
2022/09/16 08:21:20;;;;;;;;;9.00;7.00;;;;;;;;5073803;27;45785;-79
2022/09/16 08:23:45;;;;;;;;;5.33;5.00;;;;;;;;5080851;27;45482;-80
2022/09/16 08:26:12;;;;;;;;;7.00;7.00;;;;;;;;5089517;27;45439;-78
2022/09/16 08:28:38;;;;;;;;;7.00;7.00;;;;;;;;5082672;27;45662;-78
2022/09/16 08:31:04;;;;;;;;;5.00;4.00;;;;;;;;5071749;27;47231;-79
2022/09/16 08:33:29;;;;;;;;;9.00;7.00;;;;;;;;5070362;27;45762;-78
2022/09/16 08:35:58;;;;;;;;;8.67;7.00;;;;;;;;5068913;27;45724;-80
2022/09/16 08:38:24;;;;;;;;;5.00;5.00;;;;;;;;5060893;27;46027;-80
2022/09/16 08:40:50;;;;;;;;;8.67;7.67;;;;;;;;5046776;28;47367;-80
2022/09/16 08:43:23;;;;;;;;;8.33;6.00;;;;;;;;5057541;28;46016;-80
2022/09/16 08:46:01;;;;;;;;;8.67;8.67;;;;;;;;5062121;27;45896;-81
2022/09/16 08:48:32;;;;;;;;;9.00;6.33;;;;;;;;5104231;27;45840;-80
2022/09/16 08:50:59;;;;;;;;;6.00;5.67;;;;;;;;5112968;27;45710;-82
2022/09/16 08:53:38;;;;;;;;;6.67;6.67;;;;;;;;5095579;27;45582;-80
2022/09/16 08:56:06;;;;;;;;;7.00;5.67;;;;;;;;5105731;27;45665;-79
2022/09/16 08:58:39;;;;;;;;;6.00;6.00;;;;;;;;5079513;27;45738;-79
2022/09/16 09:01:13;;;;;;;;;32.67;28.67;;;;;;;;5079640;27;47526;-80
2022/09/16 09:03:44;;;;;;;;;6.33;6.33;;;;;;;;5094888;27;45580;-82
2022/09/16 09:06:12;;;;;;;;;5.33;4.67;;;;;;;;5108986;27;45677;-83
2022/09/16 09:08:49;;;;;;;;;5.67;4.67;;;;;;;;5084385;27;46256;-82
2022/09/16 09:11:24;;;;;;;;;3.33;3.33;;;;;;;;5081104;27;47691;-80
2022/09/16 09:13:56;;;;;;;;;4.33;4.00;;;;;;;;5092293;27;45571;-81
2022/09/16 09:16:32;;;;;;;;;3.67;3.67;;;;;;;;5079005;27;45557;-79
2022/09/16 09:19:09;;;;;;;;;3.00;3.00;;;;;;;;5079647;27;45478;-80
2022/09/16 09:21:50;;;;;;;;;2.00;2.00;;;;;;;;5083179;27;45500;-81
2022/09/16 09:24:22;;;;;;;;;3.00;3.00;;;;;;;;5075323;27;45510;-79
2022/09/16 09:26:49;;;;;;;;;4.00;3.67;;;;;;;;5076103;27;45470;-80
2022/09/16 09:29:22;;;;;;;;;3.50;3.50;;;;;;;;5070235;27;45853;-79
2022/09/16 09:31:50;;;;;;;;;4.00;2.75;;;;;;;;5084746;27;45465;-81
2022/09/16 09:34:16;;;;;;;;;1.75;1.75;;;;;;;;5069958;27;45449;-80
2022/09/16 09:37:03;;;;;;;;;1.50;1.50;;;;;;;;5101409;27;45913;-81
2022/09/16 09:39:38;;;;;;;;;3.50;1.00;;;;;;;;5099882;27;45862;-79
2022/09/16 09:42:10;;;;;;;;;3.00;1.00;;;;;;;;5077558;27;47478;-79
2022/09/16 09:44:51;;;;;;;;;4.25;3.25;;;;;;;;5100366;27;45859;-80
2022/09/16 09:47:36;;;;;;;;;1.00;1.00;;;;;;;;5077024;27;45830;-83
2022/09/16 09:50:10;;;;;;;;;2.00;0.75;;;;;;;;5092731;27;45637;-80
2022/09/16 09:52:47;;;;;;;;;2.50;0.00;;;;;;;;5092295;27;46768;-82
2022/09/16 09:55:17;;;;;;;;;2.75;2.00;;;;;;;;5081582;27;45807;-83
2022/09/16 09:57:56;;;;;;;;;1.50;1.00;;;;;;;;5075741;27;45798;-82
2022/09/16 10:00:21;;;;;;;;;2.50;1.50;;;;;;;;5073418;27;45422;-81
2022/09/16 10:03:09;;;;;;;;;1.00;1.00;;;;;;;;5092580;27;45509;-82
2022/09/16 10:06:07;;;;;;;;;1.00;1.00;;;;;;;;5083109;27;45998;-81
2022/09/16 10:08:41;;;;;;;;;1.75;1.00;;;;;;;;5088499;27;45534;-81
2022/09/16 10:11:15;;;;;;;;;0.00;0.00;;;;;;;;5087698;27;45901;-81
2022/09/16 10:13:47;;;;;;;;;3.00;1.00;;;;;;;;5103587;27;46296;-82
2022/09/16 10:16:19;;;;;;;;;1.00;1.00;;;;;;;;5080902;27;45641;-83
2022/09/16 10:19:24;;;;;;;;;0.25;0.25;;;;;;;;5079266;28;45542;-89
2022/09/16 10:21:52;;;;;;;;;1.25;0.75;;;;;;;;5093361;27;45824;-87
2022/09/16 10:24:36;;;;;;;;;0.00;0.00;;;;;;;;5092381;27;45485;-83
2022/09/16 10:27:26;;;;;;;;;0.00;0.00;;;;;;;;5072359;27;45491;-82
2022/09/16 10:30:20;;;;;;;;;;;;;;;;;;;;;
2022/09/16 10:32:56;;;;;;;;;0.00;0.00;;;;;;;;5106856;27;45767;-89
2022/09/16 10:35:26;;;;;;;;;1.00;1.00;;;;;;;;5100806;27;45990;-87
2022/09/16 10:37:58;;;;;;;;;1.25;1.00;;;;;;;;5093389;27;45414;-90
2022/09/16 10:40:37;;;;;;;;;1.50;1.00;;;;;;;;5091489;27;45727;-90
2022/09/16 10:43:04;;;;;;;;;0.00;0.00;;;;;;;;5101711;27;45726;-90
2022/09/16 10:45:33;;;;;;;;;1.50;0.25;;;;;;;;5103117;27;45492;-89
2022/09/16 10:48:00;;;;;;;;;1.75;1.75;;;;;;;;5074799;27;45501;-82
2022/09/16 10:50:27;;;;;;;;;2.00;2.00;;;;;;;;5105795;27;45444;-83
2022/09/16 10:52:53;;;;;;;;;2.50;1.00;;;;;;;;5101685;27;45970;-85
2022/09/16 10:55:19;;;;;;;;;1.00;0.00;;;;;;;;5090720;27;46196;-82
2022/09/16 10:57:44;;;;;;;;;2.75;1.00;;;;;;;;5090186;27;45897;-82
2022/09/16 11:00:14;;;;;;;;;3.75;1.25;;;;;;;;5071144;28;45428;-82
2022/09/16 11:03:01;;;;;;;;;1.25;1.00;;;;;;;;5084351;27;46110;-81
2022/09/16 11:05:45;;;;;;;;;1.00;1.00;;;;;;;;5075799;27;45665;-80
2022/09/16 11:08:29;;;;;;;;;0.50;0.00;;;;;;;;5088529;27;45739;-82
2022/09/16 11:10:59;;;;;;;;;0.00;0.00;;;;;;;;5070801;27;45552;-82
2022/09/16 11:13:29;;;;;;;;;0.00;0.00;;;;;;;;5095189;27;45590;-82
2022/09/16 11:16:02;;;;;;;;;2.75;1.00;;;;;;;;5078089;27;47283;-86
2022/09/16 11:18:55;;;;;;;;;1.00;1.00;;;;;;;;5083029;27;46009;-84
2022/09/16 11:21:21;;;;;;;;;1.25;1.25;;;;;;;;5106566;27;45508;-85
2022/09/16 11:24:05;;;;;;;;;1.00;1.00;;;;;;;;5109528;27;45518;-84
2022/09/16 11:27:00;;;;;;;;;2.75;1.00;;;;;;;;5089336;27;47029;-83
2022/09/16 11:29:39;;;;;;;;;0.25;0.00;;;;;;;;5082681;27;45595;-82
2022/09/16 11:32:13;;;;;;;;;3.00;2.00;;;;;;;;5110159;27;45526;-83
2022/09/16 11:34:46;;;;;;;;;1.25;1.00;;;;;;;;5087654;27;45763;-81
2022/09/16 11:37:12;;;;;;;;;0.00;0.00;;;;;;;;5089791;27;47487;-81
2022/09/16 11:39:44;;;;;;;;;2.25;1.00;;;;;;;;5095534;27;46448;-79
2022/09/16 11:42:09;;;;;;;;;0.75;0.75;;;;;;;;5103732;27;45931;-81
2022/09/16 11:44:46;;;;;;;;;3.00;1.25;;;;;;;;5099473;27;45839;-82
2022/09/16 11:47:15;;;;;;;;;1.50;1.00;;;;;;;;5102554;27;45774;-82
2022/09/16 11:49:43;;;;;;;;;1.75;0.75;;;;;;;;5085725;27;45486;-82
2022/09/16 11:52:09;;;;;;;;;0.00;0.00;;;;;;;;5103065;27;45571;-83
2022/09/16 11:54:40;;;;;;;;;1.50;0.50;;;;;;;;5083843;27;45863;-85
2022/09/16 11:57:15;;;;;;;;;1.00;1.00;;;;;;;;5091784;27;45410;-87
2022/09/16 11:59:46;;;;;;;;;0.00;0.00;;;;;;;;5093267;27;45702;-87
2022/09/16 12:02:27;;;;;;;;;0.00;0.00;;;;;;;;5111214;27;45648;-89
2022/09/16 12:04:52;;;;;;;;;5.00;3.00;;;;;;;;5090317;27;45580;-89
2022/09/16 12:07:26;;;;;;;;;1.00;1.00;;;;;;;;5108732;27;45782;-90
2022/09/16 12:10:15;;;;;;;;;0.25;0.25;;;;;;;;5089913;27;45440;-88
2022/09/16 12:12:48;;;;;;;;;0.50;0.50;;;;;;;;5104471;27;45532;-88
2022/09/16 12:15:21;;;;;;;;;0.75;0.75;;;;;;;;5087858;27;45886;-88
2022/09/16 12:17:52;;;;;;;;;1.00;1.00;;;;;;;;5099905;27;45435;-87
2022/09/16 12:20:22;;;;;;;;;0.00;0.00;;;;;;;;5092976;27;45506;-87
2022/09/16 12:23:17;;;;;;;;;2.00;1.00;;;;;;;;5088489;27;45408;-87
2022/09/16 12:26:09;;;;;;;;;1.00;1.00;;;;;;;;5085016;27;45376;-85
2022/09/16 12:28:54;;;;;;;;;1.00;1.00;;;;;;;;5092988;27;47367;-83
2022/09/16 12:31:43;;;;;;;;;0.25;0.25;;;;;;;;5099262;27;45450;-83
2022/09/16 12:34:08;;;;;;;;;0.00;0.00;;;;;;;;5085425;27;45901;-82
2022/09/16 12:36:37;;;;;;;;;0.00;0.00;;;;;;;;5097708;27;45490;-85
2022/09/16 12:39:04;;;;;;;;;1.25;1.25;;;;;;;;5103180;27;45422;-84
2022/09/16 12:41:42;;;;;;;;;1.25;0.25;;;;;;;;5106700;27;45650;-82
2022/09/16 12:44:18;;;;;;;;;1.50;1.50;;;;;;;;5104421;27;45489;-84
2022/09/16 12:47:11;;;;;;;;;0.00;0.00;;;;;;;;5103123;27;45521;-85
2022/09/16 12:50:03;;;;;;;;;5.25;1.00;;;;;;;;5070982;27;45959;-80
2022/09/16 12:52:46;;;;;;;;;1.00;1.00;;;;;;;;5100412;27;45523;-80
2022/09/16 12:55:24;;;;;;;;;1.00;1.00;;;;;;;;5068687;27;45883;-82
2022/09/16 12:58:21;;;;;;;;;1.25;1.25;;;;;;;;5093514;27;45836;-79
2022/09/16 13:01:42;;;;;;;;;1.00;1.00;;;;;;;;5085531;27;46155;-80
2022/09/16 13:04:52;;;;;;;;;1.00;0.50;;;;;;;;5043248;28;45551;-80
2022/09/16 13:07:34;;;;;;;;;2.75;1.75;;;;;;;;5053350;28;45552;-80
2022/09/16 13:10:02;;;;;;;;;1.50;1.00;;;;;;;;5053661;28;45793;-81
2022/09/16 13:12:33;;;;;;;;;1.00;1.00;;;;;;;;5060182;27;45505;-80
2022/09/16 13:15:20;;;;;;;;;2.00;2.00;;;;;;;;5077863;27;45496;-80
2022/09/16 13:18:13;;;;;;;;;1.50;1.00;;;;;;;;5098584;27;45324;-81
2022/09/16 13:21:14;;;;;;;;;;;;;;;;;;;;;
2022/09/16 13:23:53;;;;;;;;;1.00;1.00;;;;;;;;5081875;27;75756;-81
2022/09/16 13:26:25;;;;;;;;;1.00;1.00;;;;;;;;5082504;27;45710;-79
2022/09/16 13:28:56;;;;;;;;;2.25;2.25;;;;;;;;5098367;27;45882;-81
2022/09/16 13:31:30;;;;;;;;;0.50;0.50;;;;;;;;5079742;27;45582;-82
2022/09/16 13:34:19;;;;;;;;;2.00;0.50;;;;;;;;5085282;27;46063;-82
2022/09/16 13:36:48;;;;;;;;;3.00;1.00;;;;;;;;5069767;27;45915;-81
2022/09/16 13:39:32;;;;;;;;;2.00;2.00;;;;;;;;5084184;27;45740;-79
2022/09/16 13:42:23;;;;;;;;;1.25;1.25;;;;;;;;5070811;27;45456;-80
2022/09/16 13:45:03;;;;;;;;;2.75;2.00;;;;;;;;5052804;28;46807;-79
2022/09/16 13:47:30;;;;;;;;;1.00;1.00;;;;;;;;5085299;27;45439;-79
2022/09/16 13:50:01;;;;;;;;;1.00;1.00;;;;;;;;5077050;27;45295;-77
2022/09/16 13:52:30;;;;;;;;;1.50;1.00;;;;;;;;5090681;27;45447;-79
2022/09/16 13:55:01;;;;;;;;;3.00;1.25;;;;;;;;5078629;27;46830;-79
2022/09/16 13:57:47;;;;;;;;;1.50;1.00;;;;;;;;5092747;27;46027;-77
2022/09/16 14:00:21;;;;;;;;;1.50;1.50;;;;;;;;5074108;27;45964;-80
2022/09/16 14:03:05;;;;;;;;;2.00;1.00;;;;;;;;5076333;27;47074;-78
2022/09/16 14:05:30;;;;;;;;;1.00;1.00;;;;;;;;5067140;27;46284;-78
2022/09/16 14:07:58;;;;;;;;;0.00;0.00;;;;;;;;5098200;27;45440;-78
2022/09/16 14:10:43;;;;;;;;;1.00;1.00;;;;;;;;5091598;27;45664;-79
2022/09/16 14:13:16;;;;;;;;;0.00;0.00;;;;;;;;5093818;27;46013;-80
2022/09/16 14:15:49;;;;;;;;;1.00;1.00;;;;;;;;5099024;27;45410;-78
2022/09/16 14:18:18;;;;;;;;;1.00;0.00;;;;;;;;5091063;27;45489;-85
2022/09/16 14:21:10;;;;;;;;;1.50;1.00;;;;;;;;5074130;27;45652;-76
2022/09/16 14:23:35;;;;;;;;;1.00;1.00;;;;;;;;5096963;27;45696;-77
2022/09/16 14:26:17;;;;;;;;;2.00;0.00;;;;;;;;5103494;27;45717;-79
2022/09/16 14:28:43;;;;;;;;;1.00;1.00;;;;;;;;5075809;27;45887;-75
2022/09/16 14:31:11;;;;;;;;;1.00;1.00;;;;;;;;5084446;27;45429;-77
2022/09/16 14:33:45;;;;;;;;;1.00;1.00;;;;;;;;5105635;27;45429;-76
2022/09/16 14:36:33;;;;;;;;;0.00;0.00;;;;;;;;5094600;27;46918;-76
2022/09/16 14:39:01;;;;;;;;;2.00;2.00;;;;;;;;5086854;27;45883;-76
2022/09/16 14:41:45;;;;;;;;;1.00;1.00;;;;;;;;5094916;27;45756;-76
2022/09/16 14:44:23;;;;;;;;;1.00;1.00;;;;;;;;5090773;27;45748;-78
2022/09/16 14:46:50;;;;;;;;;2.33;1.00;;;;;;;;5096293;27;45708;-77
2022/09/16 14:49:17;;;;;;;;;2.00;0.00;;;;;;;;5093882;27;45811;-78
2022/09/16 14:52:07;;;;;;;;;0.75;0.75;;;;;;;;5087178;27;45714;-89
2022/09/16 14:54:42;;;;;;;;;1.00;1.00;;;;;;;;5096839;27;45803;-81
2022/09/16 14:57:37;;;;;;;;;0.25;0.25;;;;;;;;5100139;27;46371;-80
2022/09/16 15:00:09;;;;;;;;;0.50;0.50;;;;;;;;5069785;27;45594;-80
2022/09/16 15:06:04;;;;;;;;;1.50;0.50;;;;;;;;5086021;27;45525;-81
2022/09/16 15:11:48;;;;;;;;;1.75;0.25;;;;;;;;5034595;28;45789;-84
2022/09/16 15:14:16;;;;;;;;;0.75;0.75;;;;;;;;5042588;28;45750;-79
2022/09/16 15:17:24;;;;;;;;;0.25;0.25;;;;;;;;5037468;28;45765;-83
2022/09/16 15:19:57;;;;;;;;;0.50;0.50;;;;;;;;5034784;28;45773;-83
2022/09/16 15:22:43;;;;;;;;;1.00;1.00;;;;;;;;5024716;28;45604;-84